Time;durP1;ratioP1;P1;durP2;ratioP2;P2;SDS_P1;SDS_P2;PMS_P1;PMS_P2;Temp;Humidity;BMP_temperature;BMP_pressure;BME280_temperature;BME280_humidity;BME280_pressure;Samples;Min_cycle;Max_cycle;Signal;HPM_P1;HPM_P2
2023/05/26 00:04:28;;;;;;;8.82;4.93;;;;;;;;;;10488273;28;20024;-50
2023/05/26 00:09:28;;;;;;;6.80;3.92;;;;;;;;;;10488730;28;20024;-47
2023/05/26 00:14:29;;;;;;;7.15;4.82;;;;;;;;;;10484310;28;20028;-48
2023/05/26 00:19:31;;;;;;;7.50;4.45;;;;;;;;;;10488160;28;20033;-46
2023/05/26 00:24:32;;;;;;;6.57;4.43;;;;;;;;;;10484112;28;20016;-47
2023/05/26 00:29:33;;;;;;;5.38;4.00;;;;;;;;;;10488937;28;20494;-48
2023/05/26 00:34:34;;;;;;;8.75;3.75;;;;;;;;;;10481031;28;20021;-56
2023/05/26 00:39:35;;;;;;;9.65;3.85;;;;;;;;;;10486671;28;20032;-51
2023/05/26 00:44:36;;;;;;;6.65;4.00;;;;;;;;;;10486500;28;20040;-55
2023/05/26 00:49:37;;;;;;;6.65;4.15;;;;;;;;;;10484317;28;20033;-56
2023/05/26 00:54:39;;;;;;;7.85;4.10;;;;;;;;;;10487080;28;20078;-55
2023/05/26 00:59:40;;;;;;;5.03;3.80;;;;;;;;;;10450900;28;20051;-56
2023/05/26 01:04:41;;;;;;;6.50;3.95;;;;;;;;;;10464770;28;20040;-51
2023/05/26 01:09:41;;;;;;;6.25;3.97;;;;;;;;;;10449435;28;20087;-52
2023/05/26 01:14:49;;;;;;;5.28;3.95;;;;;;;;;;10472520;28;20032;-57
2023/05/26 01:20:24;;;;;;;8.52;4.03;;;;;;;;;;10461914;28;20037;-46
2023/05/26 01:25:56;;;;;;;7.05;3.55;;;;;;;;;;10448394;28;20473;-55
2023/05/26 01:30:58;;;;;;;5.35;3.88;;;;;;;;;;10475281;28;20385;-52
2023/05/26 01:35:59;;;;;;;5.75;4.00;;;;;;;;;;10473896;28;20067;-56
2023/05/26 01:41:12;;;;;;;4.07;3.65;;;;;;;;;;10486903;28;20027;-55
2023/05/26 01:46:32;;;;;;;6.45;3.60;;;;;;;;;;10475127;28;20060;-56
2023/05/26 01:51:35;;;;;;;7.80;4.32;;;;;;;;;;10475299;28;20511;-56
2023/05/26 01:56:36;;;;;;;7.78;4.18;;;;;;;;;;10476173;28;20106;-47
2023/05/26 02:01:37;;;;;;;6.72;4.35;;;;;;;;;;10451605;28;20114;-46
2023/05/26 02:06:38;;;;;;;8.23;5.25;;;;;;;;;;10464761;28;20544;-47
2023/05/26 02:11:39;;;;;;;6.88;4.75;;;;;;;;;;10463813;28;20037;-46
2023/05/26 02:16:40;;;;;;;6.53;4.75;;;;;;;;;;10452962;28;20041;-47
2023/05/26 02:21:40;;;;;;;9.15;4.55;;;;;;;;;;10461836;28;20032;-46
2023/05/26 02:26:41;;;;;;;6.53;4.60;;;;;;;;;;10473821;28;20033;-46
2023/05/26 02:31:41;;;;;;;5.57;4.47;;;;;;;;;;10480629;28;20016;-48
2023/05/26 02:36:42;;;;;;;5.30;4.40;;;;;;;;;;10480361;28;20468;-55
2023/05/26 02:41:43;;;;;;;6.95;4.72;;;;;;;;;;10482277;28;20419;-47
2023/05/26 02:46:43;;;;;;;11.02;5.38;;;;;;;;;;10460483;28;20041;-48
2023/05/26 02:51:45;;;;;;;8.48;4.80;;;;;;;;;;10449766;28;20045;-45
2023/05/26 02:56:45;;;;;;;13.63;4.63;;;;;;;;;;10472683;28;20036;-49
2023/05/26 03:01:46;;;;;;;8.40;4.40;;;;;;;;;;10474074;28;20036;-55
2023/05/26 03:06:47;;;;;;;8.82;4.88;;;;;;;;;;10471104;28;20099;-49
2023/05/26 03:11:47;;;;;;;8.43;4.85;;;;;;;;;;10466056;28;20033;-48
2023/05/26 03:16:51;;;;;;;14.20;5.30;;;;;;;;;;10464219;28;20029;-46
2023/05/26 03:21:52;;;;;;;6.13;4.15;;;;;;;;;;10463675;28;20149;-47
2023/05/26 03:26:52;;;;;;;8.63;4.75;;;;;;;;;;10462400;28;20060;-46
2023/05/26 03:31:53;;;;;;;7.60;4.43;;;;;;;;;;10457670;28;20025;-48
2023/05/26 03:36:54;;;;;;;6.72;3.90;;;;;;;;;;10475461;28;20051;-48
2023/05/26 03:41:55;;;;;;;6.80;4.40;;;;;;;;;;10467739;28;20028;-49
2023/05/26 03:46:55;;;;;;;4.78;4.15;;;;;;;;;;10469568;28;20045;-48
2023/05/26 03:51:56;;;;;;;9.32;4.65;;;;;;;;;;10460320;28;20511;-46
2023/05/26 03:56:56;;;;;;;7.72;4.13;;;;;;;;;;10475074;28;20482;-54
2023/05/26 04:01:57;;;;;;;7.35;4.00;;;;;;;;;;10479527;28;20051;-51
2023/05/26 04:06:58;;;;;;;5.90;3.85;;;;;;;;;;10475961;28;20028;-57
2023/05/26 04:11:59;;;;;;;6.20;3.67;;;;;;;;;;10474661;28;20021;-57
2023/05/26 04:16:59;;;;;;;5.93;3.55;;;;;;;;;;10465573;28;20032;-57
2023/05/26 04:22:00;;;;;;;6.90;3.53;;;;;;;;;;10480049;28;20044;-57
2023/05/26 04:27:01;;;;;;;5.80;3.85;;;;;;;;;;10473833;28;20059;-58
2023/05/26 04:32:02;;;;;;;4.05;3.63;;;;;;;;;;10470966;28;20031;-58
2023/05/26 04:37:04;;;;;;;7.85;3.92;;;;;;;;;;10478081;28;20472;-57
2023/05/26 04:42:05;;;;;;;7.18;3.88;;;;;;;;;;10477257;28;20021;-57
2023/05/26 04:47:09;;;;;;;7.30;3.42;;;;;;;;;;10477255;28;20400;-60
2023/05/26 04:52:10;;;;;;;6.18;3.50;;;;;;;;;;10473895;28;20025;-61
2023/05/26 04:57:11;;;;;;;4.95;3.92;;;;;;;;;;10468432;28;20395;-61
2023/05/26 05:02:11;;;;;;;7.47;3.63;;;;;;;;;;10473315;28;20021;-59
2023/05/26 05:07:12;;;;;;;4.47;3.83;;;;;;;;;;10466149;28;20533;-60
2023/05/26 05:12:12;;;;;;;5.68;3.72;;;;;;;;;;10474695;28;20021;-60
2023/05/26 05:17:13;;;;;;;7.57;3.95;;;;;;;;;;10464676;28;20029;-60
2023/05/26 05:22:14;;;;;;;9.40;4.03;;;;;;;;;;10474421;28;20021;-60
2023/05/26 05:27:14;;;;;;;7.30;3.83;;;;;;;;;;10473393;28;20033;-60
2023/05/26 05:32:15;;;;;;;7.90;4.35;;;;;;;;;;10473479;28;20021;-61
2023/05/26 05:37:16;;;;;;;7.10;4.00;;;;;;;;;;10473405;28;20247;-60
2023/05/26 05:42:16;;;;;;;17.77;5.45;;;;;;;;;;10471829;28;20051;-62
2023/05/26 05:47:17;;;;;;;11.73;5.18;;;;;;;;;;10464573;28;20061;-61
2023/05/26 05:52:18;;;;;;;6.85;4.40;;;;;;;;;;10464208;28;20176;-61
2023/05/26 05:57:18;;;;;;;6.00;4.38;;;;;;;;;;10473919;28;20033;-61
2023/05/26 06:02:19;;;;;;;11.15;4.57;;;;;;;;;;10467491;28;20075;-62
2023/05/26 06:07:19;;;;;;;9.10;4.22;;;;;;;;;;10470845;28;20025;-63
2023/05/26 06:12:20;;;;;;;6.75;3.75;;;;;;;;;;10453574;28;20024;-61
2023/05/26 06:17:20;;;;;;;8.43;3.75;;;;;;;;;;10463779;28;20020;-59
2023/05/26 06:22:21;;;;;;;12.00;3.50;;;;;;;;;;10455806;28;20028;-61
2023/05/26 06:27:22;;;;;;;8.50;3.78;;;;;;;;;;10453338;28;20083;-61
2023/05/26 06:32:22;;;;;;;8.50;3.90;;;;;;;;;;10466553;28;20028;-60
2023/05/26 06:37:23;;;;;;;7.50;3.65;;;;;;;;;;10474757;28;20041;-58
2023/05/26 06:42:23;;;;;;;5.10;3.65;;;;;;;;;;10466017;28;20020;-59
2023/05/26 06:47:24;;;;;;;4.95;3.40;;;;;;;;;;10457279;28;20028;-59
2023/05/26 06:52:25;;;;;;;8.73;3.85;;;;;;;;;;10465233;28;20024;-59
2023/05/26 06:57:25;;;;;;;4.55;3.25;;;;;;;;;;10480219;28;20028;-59
2023/05/26 07:02:26;;;;;;;8.85;3.67;;;;;;;;;;10470291;28;20024;-59
2023/05/26 07:07:27;;;;;;;6.43;3.38;;;;;;;;;;10479379;28;20044;-59
2023/05/26 07:12:27;;;;;;;3.65;3.35;;;;;;;;;;10464390;28;20498;-59
2023/05/26 07:17:28;;;;;;;5.20;3.35;;;;;;;;;;10468297;28;20024;-61
2023/05/26 07:22:28;;;;;;;8.02;3.40;;;;;;;;;;10470303;28;20032;-59
2023/05/26 07:27:29;;;;;;;4.35;3.47;;;;;;;;;;10483904;28;20544;-59
2023/05/26 07:32:30;;;;;;;5.95;3.40;;;;;;;;;;10487445;28;20448;-59
2023/05/26 07:37:30;;;;;;;9.15;4.03;;;;;;;;;;10479601;28;20055;-60
2023/05/26 07:42:31;;;;;;;5.13;3.60;;;;;;;;;;10468453;28;20032;-61
2023/05/26 07:47:32;;;;;;;4.50;3.83;;;;;;;;;;10462570;28;20090;-59
2023/05/26 07:52:33;;;;;;;6.15;3.53;;;;;;;;;;10473973;28;20085;-59
2023/05/26 07:57:33;;;;;;;4.55;3.67;;;;;;;;;;10477903;28;20037;-60
2023/05/26 08:02:35;;;;;;;5.05;3.92;;;;;;;;;;10472646;28;20025;-59
2023/05/26 08:07:35;;;;;;;7.65;4.88;;;;;;;;;;10485274;28;20057;-60
2023/05/26 08:12:36;;;;;;;4.43;4.00;;;;;;;;;;10489046;28;20028;-60
2023/05/26 08:17:37;;;;;;;4.57;4.07;;;;;;;;;;10486765;28;20032;-60
2023/05/26 08:22:38;;;;;;;5.90;3.90;;;;;;;;;;10472322;28;20093;-60
2023/05/26 08:27:39;;;;;;;5.47;4.20;;;;;;;;;;10465192;28;20033;-61
2023/05/26 08:32:40;;;;;;;5.35;4.13;;;;;;;;;;10467161;28;20104;-59
2023/05/26 08:37:41;;;;;;;8.88;4.70;;;;;;;;;;10466486;28;20037;-62
2023/05/26 08:42:46;;;;;;;5.13;3.65;;;;;;;;;;10469896;28;20128;-61
2023/05/26 08:47:47;;;;;;;7.78;4.03;;;;;;;;;;10489679;28;20048;-61
2023/05/26 08:52:49;;;;;;;6.13;4.75;;;;;;;;;;10479585;28;20078;-60
2023/05/26 08:57:50;;;;;;;7.95;4.85;;;;;;;;;;10455963;28;20037;-60
2023/05/26 09:02:51;;;;;;;17.25;5.10;;;;;;;;;;10451724;28;20036;-60
2023/05/26 09:07:51;;;;;;;7.55;4.70;;;;;;;;;;10456614;28;20025;-61
2023/05/26 09:13:03;;;;;;;6.25;4.90;;;;;;;;;;10466211;28;20021;-61
2023/05/26 09:18:06;;;;;;;7.43;4.43;;;;;;;;;;10455110;28;20021;-62
2023/05/26 09:23:07;;;;;;;11.40;5.72;;;;;;;;;;10446454;28;20035;-59
2023/05/26 09:28:13;;;;;;;11.18;5.20;;;;;;;;;;10463215;28;20032;-59
2023/05/26 09:33:18;;;;;;;18.73;5.82;;;;;;;;;;10464067;28;20020;-59
2023/05/26 09:38:20;;;;;;;7.63;4.97;;;;;;;;;;10477503;28;20032;-59
2023/05/26 09:43:22;;;;;;;13.15;4.40;;;;;;;;;;10459423;28;20256;-61
2023/05/26 09:48:23;;;;;;;6.60;4.40;;;;;;;;;;10471528;28;20402;-61
2023/05/26 09:53:23;;;;;;;9.13;5.22;;;;;;;;;;10469160;28;20025;-60
2023/05/26 09:58:25;;;;;;;8.25;5.03;;;;;;;;;;10466544;28;20438;-61
2023/05/26 10:03:27;;;;;;;9.88;5.70;;;;;;;;;;10458367;28;20320;-61
2023/05/26 10:08:30;;;;;;;15.32;6.47;;;;;;;;;;10447875;28;20040;-61
2023/05/26 10:13:32;;;;;;;41.70;8.70;;;;;;;;;;10441224;28;20060;-62
2023/05/26 10:18:33;;;;;;;23.90;8.48;;;;;;;;;;10470850;28;20032;-62
2023/05/26 10:23:57;;;;;;;16.92;7.13;;;;;;;;;;10481566;28;20024;-62
2023/05/26 10:29:06;;;;;;;14.88;6.57;;;;;;;;;;10461696;28;20029;-61
2023/05/26 10:34:34;;;;;;;15.38;5.93;;;;;;;;;;10468447;28;20029;-62
2023/05/26 10:39:35;;;;;;;;;;;;;;;;;;10489555;28;20025;-62
2023/05/26 10:44:42;;;;;;;10.43;5.32;;;;;;;;;;10456011;28;19974;-62
2023/05/26 10:50:00;;;;;;;7.43;5.07;;;;;;;;;;10476514;28;20032;-62
2023/05/26 10:55:00;;;;;;;7.95;5.47;;;;;;;;;;10487879;28;20025;-61
2023/05/26 11:00:26;;;;;;;10.07;5.38;;;;;;;;;;10493837;28;20029;-62
2023/05/26 11:05:33;;;;;;;5.60;4.95;;;;;;;;;;10491985;28;20032;-62
2023/05/26 11:11:00;;;;;;;5.60;4.95;;;;;;;;;;10493959;28;20051;-62
2023/05/26 11:16:42;;;;;;;8.97;5.23;;;;;;;;;;10493617;28;20020;-62
2023/05/26 11:21:42;;;;;;;10.38;4.55;;;;;;;;;;10472873;28;20369;-61
2023/05/26 11:26:43;;;;;;;25.80;5.22;;;;;;;;;;10485628;28;20029;-61
2023/05/26 11:31:47;;;;;;;9.07;5.47;;;;;;;;;;10490550;28;20039;-62
2023/05/26 11:36:49;;;;;;;15.07;5.35;;;;;;;;;;10492882;28;20034;-61
2023/05/26 11:41:50;;;;;;;8.85;5.15;;;;;;;;;;10475280;28;20025;-62
2023/05/26 11:46:50;;;;;;;15.35;5.05;;;;;;;;;;10470661;28;20045;-61
2023/05/26 11:51:51;;;;;;;13.30;5.32;;;;;;;;;;10483328;28;20379;-62
2023/05/26 11:56:52;;;;;;;19.00;5.57;;;;;;;;;;10490594;28;20366;-61
2023/05/26 12:01:52;;;;;;;10.98;5.03;;;;;;;;;;10453669;28;20028;-60
2023/05/26 12:06:53;;;;;;;10.85;5.50;;;;;;;;;;10482018;28;20025;-61
2023/05/26 12:11:53;;;;;;;10.95;5.07;;;;;;;;;;10490802;28;20564;-62
2023/05/26 12:16:55;;;;;;;12.50;4.90;;;;;;;;;;10491404;28;20368;-63
2023/05/26 12:21:56;;;;;;;11.35;4.70;;;;;;;;;;10482991;28;20058;-61
2023/05/26 12:26:56;;;;;;;13.80;5.13;;;;;;;;;;10471571;28;20369;-61
2023/05/26 12:31:57;;;;;;;16.15;5.28;;;;;;;;;;10492501;28;20028;-63
2023/05/26 12:36:58;;;;;;;8.73;4.85;;;;;;;;;;10491877;28;20039;-64
2023/05/26 12:42:00;;;;;;;7.25;5.25;;;;;;;;;;10485259;28;20029;-65
2023/05/26 12:47:01;;;;;;;8.90;5.32;;;;;;;;;;10466589;28;20526;-62
2023/05/26 12:52:02;;;;;;;6.65;4.18;;;;;;;;;;10454298;28;20180;-63
2023/05/26 12:57:04;;;;;;;13.52;4.63;;;;;;;;;;10452676;28;20068;-63
2023/05/26 13:02:06;;;;;;;15.18;5.38;;;;;;;;;;10483115;28;20024;-63
2023/05/26 13:07:08;;;;;;;10.90;5.57;;;;;;;;;;10474376;28;20025;-63
2023/05/26 13:12:09;;;;;;;6.75;5.28;;;;;;;;;;10464344;28;20102;-63
2023/05/26 13:17:10;;;;;;;7.88;5.40;;;;;;;;;;10466899;28;20033;-61
2023/05/26 13:22:11;;;;;;;12.75;5.20;;;;;;;;;;10474290;28;20129;-60
2023/05/26 13:27:11;;;;;;;13.32;5.50;;;;;;;;;;10453039;28;20467;-61
2023/05/26 13:32:12;;;;;;;18.90;5.50;;;;;;;;;;10463288;28;20376;-61
2023/05/26 13:37:12;;;;;;;14.07;5.28;;;;;;;;;;10476824;28;20040;-62
2023/05/26 13:42:13;;;;;;;10.38;4.50;;;;;;;;;;10480509;28;20029;-61
2023/05/26 13:47:14;;;;;;;11.32;4.93;;;;;;;;;;10463517;28;20025;-61
2023/05/26 13:52:14;;;;;;;7.45;4.78;;;;;;;;;;10463853;28;20059;-61
2023/05/26 13:57:15;;;;;;;8.25;5.20;;;;;;;;;;10450290;28;20021;-61
2023/05/26 14:02:15;;;;;;;17.90;5.20;;;;;;;;;;10464961;28;20023;-62
2023/05/26 14:07:16;;;;;;;9.38;4.53;;;;;;;;;;10455392;28;20468;-61
2023/05/26 14:12:17;;;;;;;9.48;5.30;;;;;;;;;;10473920;28;20029;-62
2023/05/26 14:17:18;;;;;;;4.68;4.00;;;;;;;;;;10458750;28;20029;-63
2023/05/26 14:22:18;;;;;;;11.55;4.78;;;;;;;;;;10463651;28;20021;-61
2023/05/26 14:27:19;;;;;;;8.18;4.63;;;;;;;;;;10462694;28;20037;-61
2023/05/26 14:32:19;;;;;;;6.22;4.80;;;;;;;;;;10462320;28;20082;-60
2023/05/26 14:37:20;;;;;;;9.80;4.72;;;;;;;;;;10448853;28;20180;-61
2023/05/26 14:42:21;;;;;;;6.57;4.38;;;;;;;;;;10452770;28;20028;-61
2023/05/26 14:47:21;;;;;;;6.80;4.32;;;;;;;;;;10484582;28;20036;-61
2023/05/26 14:52:22;;;;;;;4.97;4.15;;;;;;;;;;10471786;28;20463;-62
2023/05/26 14:57:22;;;;;;;5.85;4.03;;;;;;;;;;10487688;28;20425;-61
2023/05/26 15:02:23;;;;;;;5.57;4.00;;;;;;;;;;10480161;28;20390;-61
2023/05/26 15:07:23;;;;;;;19.02;4.68;;;;;;;;;;10486403;28;20479;-60
2023/05/26 15:12:24;;;;;;;5.40;4.13;;;;;;;;;;10485832;28;20029;-63
2023/05/26 15:17:25;;;;;;;7.30;4.68;;;;;;;;;;10487374;28;20094;-60
2023/05/26 15:22:27;;;;;;;5.82;4.25;;;;;;;;;;10483703;28;20480;-63
2023/05/26 15:27:28;;;;;;;4.50;4.00;;;;;;;;;;10483824;28;20032;-60
2023/05/26 15:32:29;;;;;;;4.82;4.32;;;;;;;;;;10486588;28;20376;-60
2023/05/26 15:37:29;;;;;;;6.10;5.03;;;;;;;;;;10486564;28;20025;-60
2023/05/26 15:42:30;;;;;;;9.27;5.00;;;;;;;;;;10479952;28;20033;-60
2023/05/26 15:47:34;;;;;;;5.63;4.68;;;;;;;;;;10482936;28;20036;-60
2023/05/26 15:52:35;;;;;;;6.78;4.38;;;;;;;;;;10492569;28;20055;-60
2023/05/26 15:57:36;;;;;;;8.73;4.60;;;;;;;;;;10493958;28;20020;-60
2023/05/26 16:02:37;;;;;;;8.63;4.40;;;;;;;;;;10493143;28;20025;-60
2023/05/26 16:07:37;;;;;;;4.93;4.28;;;;;;;;;;10493362;28;20070;-64
2023/05/26 16:12:40;;;;;;;5.78;4.72;;;;;;;;;;10492158;28;20380;-60
2023/05/26 16:17:41;;;;;;;4.78;4.35;;;;;;;;;;10492642;28;20078;-60
2023/05/26 16:22:47;;;;;;;5.30;4.63;;;;;;;;;;10491287;28;20046;-60
2023/05/26 16:27:48;;;;;;;8.32;4.93;;;;;;;;;;10493836;28;20024;-60
2023/05/26 16:32:49;;;;;;;5.18;4.68;;;;;;;;;;10491282;28;20407;-60
2023/05/26 16:37:49;;;;;;;6.40;5.25;;;;;;;;;;10491757;28;20403;-59
2023/05/26 16:42:50;;;;;;;9.60;4.78;;;;;;;;;;10478309;28;20045;-61
2023/05/26 16:47:51;;;;;;;4.80;4.30;;;;;;;;;;10476754;28;20044;-62
2023/05/26 16:52:52;;;;;;;5.40;4.75;;;;;;;;;;10487812;28;20025;-61
2023/05/26 16:57:53;;;;;;;5.70;4.90;;;;;;;;;;10465603;28;20507;-59
2023/05/26 17:02:53;;;;;;;6.97;4.75;;;;;;;;;;10466937;28;20024;-60
2023/05/26 17:07:54;;;;;;;5.30;4.78;;;;;;;;;;10487394;28;20036;-60
2023/05/26 17:12:57;;;;;;;5.03;4.43;;;;;;;;;;10462946;28;20025;-60
2023/05/26 17:17:57;;;;;;;5.18;4.63;;;;;;;;;;10475831;28;20037;-60
2023/05/26 17:22:58;;;;;;;4.63;4.22;;;;;;;;;;10484620;28;20025;-59
2023/05/26 17:27:59;;;;;;;6.95;4.70;;;;;;;;;;10462768;28;20021;-60
2023/05/26 17:33:00;;;;;;;4.63;4.22;;;;;;;;;;10463304;28;20036;-60
2023/05/26 17:38:00;;;;;;;5.18;4.47;;;;;;;;;;10480778;28;20025;-63
2023/05/26 17:43:01;;;;;;;5.25;4.28;;;;;;;;;;10468736;28;20435;-61
2023/05/26 17:48:01;;;;;;;5.10;4.60;;;;;;;;;;10478052;28;20400;-61
2023/05/26 17:53:02;;;;;;;6.13;5.15;;;;;;;;;;10462745;28;20052;-60
2023/05/26 17:58:03;;;;;;;5.03;4.53;;;;;;;;;;10463039;28;20066;-64
2023/05/26 18:03:03;;;;;;;5.57;4.45;;;;;;;;;;10470591;28;20036;-59
2023/05/26 18:08:04;;;;;;;4.88;4.47;;;;;;;;;;10452823;28;20029;-60
2023/05/26 18:13:05;;;;;;;5.13;4.63;;;;;;;;;;10465174;28;20086;-59
2023/05/26 18:18:06;;;;;;;7.60;5.90;;;;;;;;;;10471691;28;20178;-62
2023/05/26 18:23:06;;;;;;;10.05;7.93;;;;;;;;;;10464322;28;20507;-59
2023/05/26 18:28:07;;;;;;;8.00;7.18;;;;;;;;;;10454179;28;20492;-63
2023/05/26 18:33:07;;;;;;;13.02;7.85;;;;;;;;;;10452802;28;20029;-59
2023/05/26 18:38:09;;;;;;;12.85;7.80;;;;;;;;;;10452952;28;20033;-60
2023/05/26 18:43:10;;;;;;;9.50;7.72;;;;;;;;;;10452894;28;20355;-60
2023/05/26 18:48:11;;;;;;;12.15;7.63;;;;;;;;;;10449945;28;20307;-60
2023/05/26 18:53:12;;;;;;;10.50;7.20;;;;;;;;;;10480432;28;20055;-66
2023/05/26 18:58:13;;;;;;;8.15;6.95;;;;;;;;;;10487373;28;20033;-63
2023/05/26 19:03:13;;;;;;;8.35;7.40;;;;;;;;;;10477566;28;20025;-60
2023/05/26 19:08:14;;;;;;;10.07;7.32;;;;;;;;;;10469209;28;20043;-60
2023/05/26 19:13:15;;;;;;;8.18;7.38;;;;;;;;;;10480341;28;20028;-60
2023/05/26 19:18:15;;;;;;;8.10;6.95;;;;;;;;;;10491250;28;20025;-60
2023/05/26 19:23:16;;;;;;;9.90;6.68;;;;;;;;;;10488690;28;20028;-59
2023/05/26 19:28:16;;;;;;;6.97;6.28;;;;;;;;;;10483988;28;20032;-59
2023/05/26 19:33:17;;;;;;;9.68;6.70;;;;;;;;;;10468370;28;20071;-61
2023/05/26 19:38:17;;;;;;;8.38;6.80;;;;;;;;;;10477804;28;20024;-60
2023/05/26 19:43:18;;;;;;;10.70;6.80;;;;;;;;;;10506426;23;20055;-56
2023/05/26 19:48:19;;;;;;;14.60;7.18;;;;;;;;;;10517218;28;20039;-53
2023/05/26 19:53:23;;;;;;;9.90;7.25;;;;;;;;;;10510276;28;20459;-55
2023/05/26 19:58:23;;;;;;;11.20;7.25;;;;;;;;;;10538527;28;20067;-52
2023/05/26 20:03:24;;;;;;;14.82;7.18;;;;;;;;;;10545609;28;20412;-52
2023/05/26 20:08:25;;;;;;;11.57;6.78;;;;;;;;;;10521591;28;20043;-54
2023/05/26 20:13:26;;;;;;;10.18;6.85;;;;;;;;;;10522863;28;20116;-54
2023/05/26 20:18:27;;;;;;;9.00;6.53;;;;;;;;;;10501333;28;20028;-53
2023/05/26 20:23:28;;;;;;;10.70;6.15;;;;;;;;;;10517094;28;20020;-52
2023/05/26 20:28:29;;;;;;;12.55;6.95;;;;;;;;;;10532407;28;20390;-55
2023/05/26 20:33:29;;;;;;;6.85;6.15;;;;;;;;;;10532745;28;20402;-54
2023/05/26 20:38:30;;;;;;;6.85;6.15;;;;;;;;;;10532444;28;20020;-53
2023/05/26 20:43:31;;;;;;;7.97;6.18;;;;;;;;;;10514911;28;20033;-53
2023/05/26 20:48:31;;;;;;;7.10;5.97;;;;;;;;;;10525673;28;20017;-53
2023/05/26 20:53:32;;;;;;;9.38;6.75;;;;;;;;;;10514775;28;20016;-53
2023/05/26 20:58:32;;;;;;;8.65;6.53;;;;;;;;;;10507496;28;20024;-54
2023/05/26 21:03:33;;;;;;;8.13;5.65;;;;;;;;;;10501403;28;20020;-54
2023/05/26 21:08:34;;;;;;;12.80;5.80;;;;;;;;;;10511205;28;20043;-53
2023/05/26 21:13:34;;;;;;;8.27;6.15;;;;;;;;;;10509348;28;20029;-55
2023/05/26 21:18:35;;;;;;;7.93;6.43;;;;;;;;;;10510028;28;20028;-55
2023/05/26 21:23:35;;;;;;;13.30;6.68;;;;;;;;;;10510445;28;20101;-54
2023/05/26 21:28:36;;;;;;;8.55;7.28;;;;;;;;;;10509538;28;20401;-54
2023/05/26 21:33:37;;;;;;;9.02;7.68;;;;;;;;;;10496175;28;20090;-54
2023/05/26 21:38:38;;;;;;;11.02;8.05;;;;;;;;;;10522457;28;20403;-54
2023/05/26 21:43:39;;;;;;;12.45;8.55;;;;;;;;;;10521153;28;20036;-53
2023/05/26 21:48:39;;;;;;;23.13;7.55;;;;;;;;;;10521156;28;20039;-55
2023/05/26 21:53:40;;;;;;;11.75;7.72;;;;;;;;;;10511252;28;20074;-53
2023/05/26 21:58:41;;;;;;;11.93;7.80;;;;;;;;;;10527181;28;20040;-52
2023/05/26 22:03:41;;;;;;;9.75;7.18;;;;;;;;;;10513240;28;20035;-54
2023/05/26 22:08:42;;;;;;;10.40;6.78;;;;;;;;;;10520553;28;20028;-55
2023/05/26 22:13:42;;;;;;;9.57;7.22;;;;;;;;;;10519573;28;20264;-54
2023/05/26 22:18:43;;;;;;;11.07;6.60;;;;;;;;;;10524658;28;20042;-55
2023/05/26 22:23:43;;;;;;;10.57;6.15;;;;;;;;;;10489449;28;20025;-54
2023/05/26 22:28:44;;;;;;;8.35;5.95;;;;;;;;;;10487895;28;20030;-53
2023/05/26 22:33:45;;;;;;;9.77;5.95;;;;;;;;;;10515974;28;20024;-52
2023/05/26 22:38:45;;;;;;;7.57;5.80;;;;;;;;;;10525707;28;20045;-51
2023/05/26 22:43:46;;;;;;;6.97;5.93;;;;;;;;;;10524843;28;20495;-52
2023/05/26 22:48:46;;;;;;;9.35;5.30;;;;;;;;;;10505955;28;20390;-55
2023/05/26 22:53:47;;;;;;;10.85;5.72;;;;;;;;;;10531332;28;20043;-57
2023/05/26 22:58:47;;;;;;;13.40;5.43;;;;;;;;;;10523307;28;20032;-55
2023/05/26 23:03:48;;;;;;;7.10;5.20;;;;;;;;;;10542512;28;20028;-55
2023/05/26 23:08:49;;;;;;;10.35;5.78;;;;;;;;;;10541605;28;20020;-56
2023/05/26 23:13:50;;;;;;;11.90;5.65;;;;;;;;;;10543421;28;20020;-55
2023/05/26 23:18:50;;;;;;;12.25;5.32;;;;;;;;;;10519881;28;20033;-54
2023/05/26 23:23:51;;;;;;;8.82;5.15;;;;;;;;;;10519623;28;20021;-56
2023/05/26 23:28:51;;;;;;;11.57;4.43;;;;;;;;;;10520133;28;20032;-55
2023/05/26 23:33:52;;;;;;;8.85;4.97;;;;;;;;;;10520424;28;20048;-53
2023/05/26 23:38:53;;;;;;;8.45;4.68;;;;;;;;;;10533449;28;20065;-56
2023/05/26 23:43:55;;;;;;;6.22;4.00;;;;;;;;;;10532364;28;20399;-56
2023/05/26 23:48:56;;;;;;;9.55;4.22;;;;;;;;;;10511568;28;20028;-57
2023/05/26 23:53:56;;;;;;;12.02;4.40;;;;;;;;;;10517613;28;20032;-57
2023/05/26 23:58:57;;;;;;;7.25;3.90;;;;;;;;;;10519021;28;20059;-56
